Time;durP1;ratioP1;P1;durP2;ratioP2;P2;SDS_P1;SDS_P2;PMS_P1;PMS_P2;Temp;Humidity;BMP_temperature;BMP_pressure;BME280_temperature;BME280_humidity;BME280_pressure;Samples;Min_cycle;Max_cycle;Signal;HPM_P1;HPM_P2
2023/04/28 03:02:30;;;;;;;10.03;9.13;;;10.10;99.90;;;;;;5033298;23;20241;-77
2023/04/28 03:04:55;;;;;;;11.93;9.50;;;10.10;99.90;;;;;;4973936;28;20675;-77
2023/04/28 03:07:21;;;;;;;11.63;9.00;;;10.10;99.90;;;;;;4972727;28;20173;-77
2023/04/28 03:09:47;;;;;;;11.10;10.30;;;10.10;99.90;;;;;;4978866;28;20283;-77
2023/04/28 03:12:13;;;;;;;9.00;8.20;;;10.20;99.90;;;;;;4972418;28;20763;-77
2023/04/28 03:14:39;;;;;;;10.23;9.20;;;10.20;99.90;;;;;;4956835;28;20225;-76
2023/04/28 03:17:05;;;;;;;10.63;9.73;;;10.30;99.90;;;;;;4953742;28;20182;-77
2023/04/28 03:19:32;;;;;;;30.37;11.60;;;10.40;99.90;;;;;;4959088;28;20181;-77
2023/04/28 03:21:57;;;;;;;13.63;12.37;;;10.40;99.90;;;;;;4981906;28;20197;-77
2023/04/28 03:24:23;;;;;;;14.33;13.17;;;10.50;99.90;;;;;;4980651;28;20196;-77
2023/04/28 03:26:49;;;;;;;15.33;14.03;;;10.50;99.90;;;;;;4984814;28;20181;-76
2023/04/28 03:29:15;;;;;;;14.87;10.33;;;10.50;99.90;;;;;;4982402;28;20205;-76
2023/04/28 03:31:41;;;;;;;20.40;18.83;;;10.50;99.90;;;;;;4958755;28;20220;-77
2023/04/28 03:34:08;;;;;;;37.57;35.20;;;10.50;99.90;;;;;;4953914;28;20598;-77
2023/04/28 03:36:33;;;;;;;30.57;28.77;;;10.50;99.90;;;;;;4954046;28;20265;-77
2023/04/28 03:38:59;;;;;;;26.60;25.00;;;10.50;99.90;;;;;;4954122;28;20193;-76
2023/04/28 03:41:25;;;;;;;20.90;19.27;;;10.50;99.90;;;;;;4971911;28;20209;-77
2023/04/28 03:43:52;;;;;;;32.60;30.60;;;10.50;99.90;;;;;;4972264;28;20185;-77
2023/04/28 03:46:17;;;;;;;33.37;31.10;;;10.40;99.90;;;;;;4972049;28;20243;-77
2023/04/28 03:48:44;;;;;;;33.37;30.93;;;10.30;99.90;;;;;;4972347;28;20560;-76
2023/04/28 03:51:10;;;;;;;31.63;29.77;;;10.20;99.90;;;;;;4956672;28;20686;-77
2023/04/28 03:53:36;;;;;;;28.07;26.37;;;10.20;99.90;;;;;;4954632;28;20196;-77
2023/04/28 03:56:02;;;;;;;40.70;38.10;;;10.20;99.90;;;;;;4953803;29;20752;-76
2023/04/28 03:58:28;;;;;;;41.87;39.07;;;10.20;99.90;;;;;;4955093;29;20182;-76
2023/04/28 04:00:54;;;;;;;48.43;45.47;;;10.20;99.90;;;;;;4966657;28;20275;-78
2023/04/28 04:03:20;;;;;;;35.80;33.63;;;10.30;99.90;;;;;;4973288;28;20181;-76
2023/04/28 04:05:46;;;;;;;29.30;27.33;;;10.20;99.90;;;;;;4971992;28;20189;-77
2023/04/28 04:08:12;;;;;;;24.40;22.47;;;10.20;99.90;;;;;;4972296;28;20185;-77
2023/04/28 04:10:38;;;;;;;25.63;23.70;;;10.20;99.90;;;;;;4960847;28;20205;-77
2023/04/28 04:13:03;;;;;;;20.57;19.10;;;10.10;99.90;;;;;;4955518;28;20198;-77
2023/04/28 04:15:29;;;;;;;50.07;47.20;;;10.10;99.90;;;;;;4952248;29;20221;-77
2023/04/28 04:17:55;;;;;;;64.07;60.40;;;10.20;99.90;;;;;;4952194;28;20185;-77
2023/04/28 04:20:21;;;;;;;46.53;43.60;;;10.20;99.90;;;;;;4963109;28;20188;-77
2023/04/28 04:22:47;;;;;;;36.10;33.97;;;10.20;99.90;;;;;;4971902;28;20235;-77
2023/04/28 04:25:13;;;;;;;27.07;25.20;;;10.30;99.90;;;;;;4973018;28;20177;-77
2023/04/28 04:27:38;;;;;;;16.37;14.87;;;10.30;99.90;;;;;;4971483;28;20189;-77
2023/04/28 04:30:05;;;;;;;25.33;23.40;;;10.30;99.90;;;;;;4965283;28;20713;-77
2023/04/28 04:32:31;;;;;;;18.30;17.00;;;10.30;99.90;;;;;;4954499;29;20214;-78
2023/04/28 04:34:56;;;;;;;20.27;18.50;;;10.30;99.90;;;;;;4959570;29;20213;-78
2023/04/28 04:37:22;;;;;;;19.73;18.33;;;10.40;99.90;;;;;;4963404;29;20213;-78
2023/04/28 04:39:48;;;;;;;28.33;26.67;;;10.50;99.90;;;;;;4961348;28;20197;-76
2023/04/28 04:42:14;;;;;;;63.17;59.43;;;10.40;99.90;;;;;;4971233;28;20204;-76
2023/04/28 04:44:39;;;;;;;76.87;72.57;;;10.40;99.90;;;;;;4971643;28;20180;-77
2023/04/28 04:47:06;;;;;;;33.43;31.27;;;10.40;99.90;;;;;;4972874;28;20646;-77
2023/04/28 04:49:31;;;;;;;37.60;35.00;;;10.50;99.90;;;;;;4969812;28;20569;-77
2023/04/28 04:51:58;;;;;;;53.37;50.43;;;10.50;99.90;;;;;;4952976;29;20210;-77
2023/04/28 04:54:23;;;;;;;55.83;52.53;;;10.40;99.90;;;;;;4953096;29;20186;-77
2023/04/28 04:56:50;;;;;;;37.37;35.10;;;10.40;99.90;;;;;;4952167;29;20224;-77
2023/04/28 04:59:16;;;;;;;29.47;27.47;;;10.40;99.90;;;;;;4954166;28;20186;-77
2023/04/28 05:01:42;;;;;;;23.73;22.03;;;10.30;99.90;;;;;;4974765;28;20216;-77
2023/04/28 05:04:07;;;;;;;21.37;19.43;;;10.40;99.90;;;;;;4967979;28;20735;-76
2023/04/28 05:06:33;;;;;;;17.10;15.80;;;10.40;99.90;;;;;;4955265;28;20212;-76
2023/04/28 05:09:00;;;;;;;13.33;12.23;;;10.40;99.90;;;;;;4948257;28;20557;-76
2023/04/28 05:11:26;;;;;;;12.50;11.53;;;10.50;99.90;;;;;;4957369;28;20205;-76
2023/04/28 05:13:52;;;;;;;12.33;11.33;;;10.50;99.90;;;;;;4948146;29;20298;-76
2023/04/28 05:16:18;;;;;;;11.83;10.83;;;10.60;99.90;;;;;;4963742;28;20216;-76
2023/04/28 05:18:43;;;;;;;10.63;9.70;;;10.60;99.90;;;;;;4970273;28;20221;-76
2023/04/28 05:21:10;;;;;;;11.47;10.47;;;10.70;99.90;;;;;;4956787;28;20209;-73
2023/04/28 05:23:36;;;;;;;12.30;11.23;;;10.70;99.90;;;;;;4958628;28;20189;-75
2023/04/28 05:26:03;;;;;;;15.10;14.00;;;10.70;99.90;;;;;;4959952;29;20190;-73
2023/04/28 05:28:29;;;;;;;14.47;13.27;;;10.70;99.90;;;;;;4956705;28;20196;-73
2023/04/28 05:30:55;;;;;;;14.13;13.13;;;10.70;99.90;;;;;;4966363;28;20792;-73
2023/04/28 05:33:22;;;;;;;14.23;13.10;;;10.80;99.90;;;;;;4974192;28;20275;-73
2023/04/28 05:35:48;;;;;;;16.53;15.07;;;10.80;99.90;;;;;;4973673;28;20212;-73
2023/04/28 05:38:15;;;;;;;14.43;13.07;;;10.90;99.90;;;;;;4976490;28;20184;-74
2023/04/28 05:40:40;;;;;;;15.30;12.80;;;11.00;99.90;;;;;;4965510;28;20201;-73
2023/04/28 05:43:06;;;;;;;14.90;13.83;;;10.90;99.90;;;;;;4957378;29;20182;-73
2023/04/28 05:45:32;;;;;;;15.43;14.30;;;11.00;99.90;;;;;;4956458;28;20200;-73
2023/04/28 05:47:58;;;;;;;14.30;13.20;;;11.00;99.90;;;;;;4955681;28;20329;-73
2023/04/28 05:50:24;;;;;;;18.00;16.57;;;11.00;99.90;;;;;;4963332;28;20669;-73
2023/04/28 05:52:49;;;;;;;18.23;16.90;;;11.00;99.90;;;;;;4974420;28;20653;-72
2023/04/28 05:55:15;;;;;;;19.03;17.63;;;11.00;99.90;;;;;;4974577;28;20701;-72
2023/04/28 05:57:41;;;;;;;17.23;15.90;;;10.90;99.90;;;;;;4974237;28;20220;-72
2023/04/28 06:00:07;;;;;;;17.87;16.47;;;11.00;99.90;;;;;;4967881;28;20185;-74
2023/04/28 06:02:33;;;;;;;18.93;17.53;;;11.00;99.90;;;;;;4954775;29;20261;-73
2023/04/28 06:04:59;;;;;;;20.67;18.90;;;11.10;99.90;;;;;;4955257;28;20572;-72
2023/04/28 06:07:25;;;;;;;21.97;20.57;;;11.10;99.90;;;;;;4953958;29;20717;-72
2023/04/28 06:09:50;;;;;;;26.60;24.90;;;11.20;99.90;;;;;;4955972;28;20185;-73
2023/04/28 06:12:16;;;;;;;28.03;26.13;;;11.20;99.90;;;;;;4974612;28;20228;-74
2023/04/28 06:14:42;;;;;;;29.80;28.10;;;11.20;99.90;;;;;;4974752;28;20247;-74
2023/04/28 06:17:08;;;;;;;27.50;25.73;;;11.30;99.90;;;;;;4974232;28;20223;-74
2023/04/28 06:19:34;;;;;;;24.93;23.23;;;11.20;99.90;;;;;;4974294;28;20185;-74
2023/04/28 06:21:59;;;;;;;28.70;26.23;;;11.20;99.90;;;;;;4954818;28;20206;-74
2023/04/28 06:24:25;;;;;;;30.17;28.23;;;11.30;99.90;;;;;;4953038;29;20177;-73
2023/04/28 06:26:51;;;;;;;32.00;29.60;;;11.30;99.90;;;;;;4953011;29;20276;-72
2023/04/28 06:29:17;;;;;;;27.90;26.03;;;11.40;99.90;;;;;;4954568;28;20197;-74
2023/04/28 06:31:42;;;;;;;34.70;32.60;;;11.40;99.90;;;;;;4970979;28;20216;-74
2023/04/28 06:34:08;;;;;;;24.00;22.30;;;11.30;99.90;;;;;;4973880;28;20255;-74
2023/04/28 06:36:34;;;;;;;27.50;25.50;;;11.40;99.90;;;;;;4972536;28;20569;-74
2023/04/28 06:39:00;;;;;;;29.80;27.80;;;11.40;99.90;;;;;;4973093;28;20657;-74
2023/04/28 06:41:27;;;;;;;32.67;30.67;;;11.40;99.90;;;;;;4958105;28;20218;-74
2023/04/28 06:43:53;;;;;;;32.40;30.47;;;11.40;99.90;;;;;;4953156;29;20208;-74
2023/04/28 06:46:19;;;;;;;42.40;39.70;;;11.40;99.90;;;;;;4953982;28;20182;-74
2023/04/28 06:48:45;;;;;;;40.63;37.97;;;11.50;99.90;;;;;;4953901;28;20189;-73
2023/04/28 06:51:11;;;;;;;27.47;25.53;;;11.60;99.90;;;;;;4966665;28;20205;-75
2023/04/28 06:53:37;;;;;;;21.83;19.87;;;11.60;99.90;;;;;;4962799;28;20194;-74
2023/04/28 06:56:03;;;;;;;24.67;22.90;;;11.60;99.90;;;;;;4953898;29;20216;-74
2023/04/28 06:58:28;;;;;;;22.03;20.33;;;11.60;99.90;;;;;;4953975;28;20642;-74
2023/04/28 07:00:54;;;;;;;20.00;18.30;;;11.60;99.90;;;;;;4964436;28;20221;-74
2023/04/28 07:03:20;;;;;;;15.97;14.40;;;11.60;99.90;;;;;;4973494;28;20196;-75
2023/04/28 07:05:46;;;;;;;14.73;13.50;;;11.60;99.90;;;;;;4952713;29;20185;-75
2023/04/28 07:08:12;;;;;;;15.30;13.97;;;11.60;99.90;;;;;;4953688;28;20185;-74
2023/04/28 07:10:37;;;;;;;18.00;15.80;;;11.60;99.90;;;;;;4960110;28;20255;-75
2023/04/28 07:13:03;;;;;;;18.20;16.13;;;11.60;99.90;;;;;;4973132;28;20193;-74
2023/04/28 07:15:30;;;;;;;18.13;16.70;;;11.50;99.90;;;;;;4972518;28;20209;-73
2023/04/28 07:17:56;;;;;;;15.50;14.07;;;11.50;99.90;;;;;;4972704;28;20187;-75
2023/04/28 07:20:21;;;;;;;20.67;18.67;;;11.50;99.90;;;;;;4965814;28;20265;-76
2023/04/28 07:22:47;;;;;;;18.57;16.73;;;11.60;99.90;;;;;;4952515;29;20185;-76
2023/04/28 07:25:13;;;;;;;16.60;15.40;;;11.60;99.90;;;;;;4952050;29;20189;-75
2023/04/28 07:27:39;;;;;;;17.37;15.73;;;11.50;99.90;;;;;;4951976;28;20638;-75
2023/04/28 07:30:05;;;;;;;18.40;16.50;;;11.60;99.90;;;;;;4954319;28;20193;-75
2023/04/28 07:32:31;;;;;;;17.23;15.60;;;11.60;99.90;;;;;;4970800;28;20205;-75
2023/04/28 07:34:57;;;;;;;18.93;17.13;;;11.70;99.90;;;;;;4971139;28;20219;-75
2023/04/28 07:37:22;;;;;;;18.00;16.10;;;11.70;99.90;;;;;;4971770;28;20219;-75
2023/04/28 07:39:48;;;;;;;15.20;13.80;;;11.70;99.90;;;;;;4970519;28;20255;-75
2023/04/28 07:42:14;;;;;;;16.47;14.97;;;11.80;99.90;;;;;;4952740;28;20215;-76
2023/04/28 07:44:40;;;;;;;14.50;13.03;;;11.80;99.90;;;;;;4951389;29;20205;-76
2023/04/28 07:47:06;;;;;;;16.03;14.83;;;11.70;99.90;;;;;;4951226;29;20182;-76
2023/04/28 07:49:32;;;;;;;17.47;16.03;;;11.70;99.90;;;;;;4951414;29;20212;-76
2023/04/28 07:51:58;;;;;;;17.70;15.73;;;11.70;99.90;;;;;;4969058;28;20267;-75
2023/04/28 07:54:24;;;;;;;17.13;15.80;;;11.70;99.90;;;;;;4972253;28;20664;-76
2023/04/28 07:56:50;;;;;;;15.37;14.10;;;11.70;99.90;;;;;;4972166;28;20209;-76
2023/04/28 07:59:15;;;;;;;11.47;10.33;;;11.70;99.90;;;;;;4968616;28;20205;-76
2023/04/28 08:01:41;;;;;;;10.97;8.57;;;11.70;99.90;;;;;;4969170;28;20259;-76
2023/04/28 08:04:09;;;;;;;13.47;12.37;;;11.70;99.90;;;;;;4966283;28;20186;-76
2023/04/28 08:06:35;;;;;;;11.93;10.57;;;11.70;99.90;;;;;;4954270;29;20197;-76
2023/04/28 08:09:01;;;;;;;12.03;10.87;;;11.80;99.90;;;;;;4953182;28;20567;-76
2023/04/28 08:11:27;;;;;;;17.23;15.93;;;11.80;99.90;;;;;;4966900;28;20212;-76
2023/04/28 08:13:53;;;;;;;13.47;12.17;;;11.70;99.90;;;;;;4973118;28;20185;-77
2023/04/28 08:16:19;;;;;;;93.20;87.00;;;11.80;99.90;;;;;;4971280;28;20701;-77
2023/04/28 08:18:45;;;;;;;19.80;18.37;;;11.80;99.90;;;;;;4973074;28;20181;-75
2023/04/28 08:21:11;;;;;;;39.83;37.23;;;11.80;99.90;;;;;;4961641;28;20201;-77
2023/04/28 08:23:37;;;;;;;122.23;115.37;;;11.90;99.90;;;;;;4958557;29;20266;-77
2023/04/28 08:26:04;;;;;;;50.27;47.10;;;11.80;99.90;;;;;;4970472;28;20259;-77
2023/04/28 08:28:34;;;;;;;180.23;169.03;;;11.80;99.90;;;;;;4980783;28;20185;-77
2023/04/28 08:31:00;;;;;;;141.00;132.70;;;11.90;99.90;;;;;;4989790;28;20196;-78
2023/04/28 08:33:26;;;;;;;72.67;67.90;;;12.00;99.90;;;;;;4985081;28;20196;-77
2023/04/28 08:35:52;;;;;;;311.03;293.80;;;12.10;99.90;;;;;;4985287;28;20240;-78
2023/04/28 08:38:17;;;;;;;200.13;189.53;;;12.00;99.90;;;;;;4967064;29;20182;-78
2023/04/28 08:40:43;;;;;;;47.10;44.30;;;12.10;99.90;;;;;;4972024;28;20204;-76
2023/04/28 08:43:10;;;;;;;27.27;25.27;;;12.10;99.90;;;;;;4980857;28;20204;-76
2023/04/28 08:45:44;;;;;;;70.17;66.30;;;12.20;99.90;;;;;;4981350;28;20195;-77
2023/04/28 08:48:20;;;;;;;31.63;29.57;;;12.10;99.90;;;;;;4984703;28;20215;-77
2023/04/28 08:50:51;;;;;;;20.70;19.00;;;12.10;99.90;;;;;;4975017;28;20204;-77
2023/04/28 08:53:24;;;;;;;33.30;31.17;;;12.20;99.90;;;;;;4961787;29;20189;-77
2023/04/28 08:55:55;;;;;;;26.27;24.50;;;12.30;99.90;;;;;;4971615;28;20220;-78
2023/04/28 08:58:26;;;;;;;22.80;21.27;;;12.40;99.90;;;;;;4969056;29;20189;-78
2023/04/28 09:00:53;;;;;;;50.73;47.57;;;12.60;99.90;;;;;;4975647;28;20240;-78
2023/04/28 09:03:19;;;;;;;30.13;28.23;;;12.70;99.90;;;;;;4988027;28;20180;-77
2023/04/28 09:05:45;;;;;;;19.67;18.47;;;12.70;99.90;;;;;;4990198;28;20639;-78
2023/04/28 09:08:11;;;;;;;20.17;18.87;;;12.80;99.90;;;;;;4994447;28;20205;-78
2023/04/28 09:10:38;;;;;;;31.87;29.97;;;12.90;99.90;;;;;;4986646;28;20212;-78
2023/04/28 09:13:04;;;;;;;24.87;23.27;;;12.80;99.90;;;;;;4967550;28;20261;-77
2023/04/28 09:15:41;;;;;;;42.70;40.23;;;12.80;99.90;;;;;;4993558;23;20232;-77
2023/04/28 09:18:07;;;;;;;14.07;13.17;;;12.70;99.90;;;;;;4974975;28;20244;-78
2023/04/28 09:20:35;;;;;;;23.00;21.70;;;12.70;99.90;;;;;;4975358;28;20177;-77
2023/04/28 09:23:21;;;;;;;16.13;15.07;;;12.70;99.90;;;;;;4974558;28;20669;-78
2023/04/28 09:26:01;;;;;;;14.60;13.67;;;12.80;99.90;;;;;;4954734;29;20228;-77
2023/04/28 09:28:27;;;;;;;16.60;15.60;;;12.90;99.90;;;;;;4955814;28;20186;-75
2023/04/28 09:30:53;;;;;;;15.87;14.87;;;12.90;99.90;;;;;;4955568;28;20209;-76
2023/04/28 09:33:20;;;;;;;33.00;31.20;;;13.00;99.90;;;;;;4967564;28;20228;-75
2023/04/28 09:35:47;;;;;;;17.07;16.07;;;13.00;99.90;;;;;;4964027;28;20244;-75
2023/04/28 09:38:17;;;;;;;31.27;29.50;;;13.00;99.90;;;;;;4955980;28;20217;-75
2023/04/28 09:41:01;;;;;;;12.73;11.83;;;12.90;99.90;;;;;;4950359;28;20186;-76
2023/04/28 09:43:32;;;;;;;13.70;12.80;;;13.10;99.90;;;;;;4936356;29;20190;-76
2023/04/28 09:46:03;;;;;;;20.90;19.53;;;13.20;99.90;;;;;;4937185;29;20277;-75
2023/04/28 09:48:33;;;;;;;12.03;10.07;;;13.20;99.90;;;;;;4935878;28;20190;-76
2023/04/28 09:51:02;;;;;;;13.60;12.63;;;13.30;99.90;;;;;;4941518;29;20201;-78
2023/04/28 09:53:28;;;;;;;9.23;8.63;;;13.50;99.90;;;;;;4938181;29;20191;-74
2023/04/28 09:55:57;;;;;;;18.87;17.47;;;13.60;99.90;;;;;;4950697;29;20694;-74
2023/04/28 09:58:24;;;;;;;11.70;10.73;;;13.70;99.90;;;;;;4951861;29;20233;-76
2023/04/28 10:00:57;;;;;;;8.63;8.00;;;13.90;99.90;;;;;;4955402;28;20181;-73
2023/04/28 10:03:25;;;;;;;9.47;8.77;;;14.00;99.90;;;;;;4954273;29;20190;-73
2023/04/28 10:05:52;;;;;;;9.97;9.10;;;14.10;99.90;;;;;;4954519;28;20213;-75
2023/04/28 10:08:22;;;;;;;12.20;11.23;;;14.30;99.90;;;;;;4954654;28;20573;-74
2023/04/28 10:10:55;;;;;;;11.87;10.77;;;14.60;99.90;;;;;;4953901;29;20186;-77
2023/04/28 10:13:22;;;;;;;8.53;7.83;;;14.80;99.90;;;;;;4954777;28;20186;-74
2023/04/28 10:15:54;;;;;;;16.37;15.27;;;14.80;99.90;;;;;;4943563;28;20266;-75
2023/04/28 10:18:22;;;;;;;14.70;13.77;;;14.80;99.90;;;;;;4953414;29;20210;-75
2023/04/28 10:20:54;;;;;;;10.80;9.90;;;14.80;99.90;;;;;;4959126;29;20201;-77
2023/04/28 10:23:49;;;;;;;31.43;29.67;;;14.90;99.90;;;;;;4959087;28;20186;-75
2023/04/28 10:26:20;;;;;;;16.50;15.10;;;14.90;99.90;;;;;;4954948;29;20200;-77
2023/04/28 10:28:47;;;;;;;14.70;13.60;;;15.00;99.90;;;;;;4953851;29;20597;-76
2023/04/28 10:31:20;;;;;;;19.00;17.87;;;15.20;99.90;;;;;;4955252;28;20181;-77
2023/04/28 10:33:46;;;;;;;32.27;30.40;;;15.40;99.90;;;;;;4954094;29;20613;-76
2023/04/28 10:36:49;;;;;;;26.17;24.47;;;15.70;99.90;;;;;;4951726;28;20206;-77
2023/04/28 10:39:15;;;;;;;55.03;52.00;;;16.20;99.90;;;;;;4936369;29;20654;-76
2023/04/28 10:41:41;;;;;;;31.70;29.73;;;16.70;99.90;;;;;;4936490;29;20206;-77
2023/04/28 10:44:29;;;;;;;27.97;26.37;;;17.10;99.90;;;;;;4936022;29;20237;-76
2023/04/28 10:47:07;;;;;;;16.30;15.10;;;17.10;99.90;;;;;;4947310;29;20722;-77
2023/04/28 10:49:57;;;;;;;11.20;10.50;;;16.70;99.90;;;;;;4954193;29;20810;-76
2023/04/28 10:52:35;;;;;;;34.97;32.87;;;16.50;99.90;;;;;;4952224;29;20604;-76
2023/04/28 10:55:36;;;;;;;24.27;23.03;;;16.60;99.90;;;;;;4933658;29;20218;-76
2023/04/28 10:58:14;;;;;;;25.53;24.03;;;17.10;99.90;;;;;;4934265;29;20330;-76
2023/04/28 11:00:41;;;;;;;14.37;13.50;;;17.90;99.90;;;;;;4935238;29;20178;-76
2023/04/28 11:03:07;;;;;;;8.10;7.50;;;18.40;99.90;;;;;;4922331;29;20186;-77
2023/04/28 11:05:35;;;;;;;35.40;33.53;;;18.50;99.90;;;;;;4935258;29;20206;-76
2023/04/28 11:08:29;;;;;;;28.30;26.90;;;18.60;99.90;;;;;;4933651;29;20197;-75
2023/04/28 11:11:15;;;;;;;33.42;31.65;;;18.60;99.90;;;;;;4936058;28;20752;-75
2023/04/28 11:13:42;;;;;;;33.40;31.75;;;18.80;99.90;;;;;;4934173;29;20213;-76
2023/04/28 11:16:08;;;;;;;65.18;61.92;;;18.80;99.90;;;;;;4937368;28;20301;-75
2023/04/28 11:18:57;;;;;;;40.45;37.88;;;18.60;99.90;;;;;;4954208;28;20557;-77
2023/04/28 11:21:26;;;;;;;19.92;18.40;;;18.40;99.90;;;;;;4955677;29;20193;-76
2023/04/28 11:23:53;;;;;;;13.13;12.23;;;18.20;99.90;;;;;;4969642;28;20197;-74
2023/04/28 11:26:19;;;;;;;21.20;19.98;;;18.20;99.90;;;;;;4954452;29;20182;-76
2023/04/28 11:28:53;;;;;;;40.85;38.67;;;18.40;99.90;;;;;;4952109;29;20197;-76
2023/04/28 11:31:23;;;;;;;14.13;13.32;;;18.50;99.90;;;;;;4955520;29;20256;-77
2023/04/28 11:33:54;;;;;;;16.40;15.23;;;18.50;99.90;;;;;;4952234;29;20697;-75
2023/04/28 11:36:28;;;;;;;14.55;13.70;;;18.60;99.90;;;;;;4952358;28;20708;-73
2023/04/28 11:38:55;;;;;;;14.75;13.95;;;18.80;99.90;;;;;;4952197;28;20197;-74
2023/04/28 11:41:21;;;;;;;47.53;44.70;;;19.20;99.90;;;;;;4948628;28;20174;-73
2023/04/28 11:43:48;;;;;;;15.10;14.10;;;20.00;99.90;;;;;;4951910;28;20214;-74
2023/04/28 11:46:18;;;;;;;49.60;47.22;;;21.00;99.90;;;;;;4952820;28;20662;-74
2023/04/28 11:48:44;;;;;;;22.20;21.10;;;21.30;99.90;;;;;;4956774;28;20204;-74
2023/04/28 11:51:32;;;;;;;29.10;27.33;;;21.50;99.90;;;;;;4959778;28;20189;-74
2023/04/28 11:53:59;;;;;;;11.30;10.60;;;21.30;99.90;;;;;;4953196;28;20214;-74
2023/04/28 11:56:26;;;;;;;7.10;6.70;;;20.90;99.90;;;;;;4953298;28;20236;-74
2023/04/28 11:59:04;;;;;;;6.20;5.80;;;20.60;99.90;;;;;;4948575;28;20699;-74
2023/04/28 12:01:31;;;;;;;13.77;12.75;;;20.00;99.90;;;;;;4945512;28;20186;-74
2023/04/28 12:03:57;;;;;;;44.35;42.15;;;19.40;99.90;;;;;;4932882;29;20686;-76
2023/04/28 12:06:23;;;;;;;123.20;117.20;;;18.40;99.90;;;;;;4933955;29;20186;-77
2023/04/28 12:08:51;;;;;;;42.45;40.38;;;17.90;99.90;;;;;;4932439;29;20189;-76
2023/04/28 12:11:17;;;;;;;45.83;43.60;;;17.30;99.90;;;;;;4939602;28;20186;-76
2023/04/28 12:14:01;;;;;;;36.77;34.97;;;16.90;99.90;;;;;;4953118;28;20205;-76
2023/04/28 12:16:38;;;;;;;28.73;27.13;;;16.50;99.90;;;;;;4951854;28;20213;-76
2023/04/28 12:19:06;;;;;;;33.40;31.70;;;16.40;99.90;;;;;;4952629;28;20252;-76
2023/04/28 12:21:32;;;;;;;15.67;14.80;;;16.20;99.90;;;;;;4947116;28;20188;-76
2023/04/28 12:23:58;;;;;;;48.70;46.00;;;16.00;99.90;;;;;;4959318;28;20201;-76
2023/04/28 12:26:24;;;;;;;66.97;63.43;;;16.00;99.90;;;;;;4953650;28;20543;-76
2023/04/28 12:28:50;;;;;;;143.07;134.37;;;16.00;99.90;;;;;;4952796;29;20245;-77
2023/04/28 12:31:16;;;;;;;96.83;91.60;;;15.80;99.90;;;;;;4951496;28;20597;-75
2023/04/28 12:33:43;;;;;;;308.90;288.07;;;15.70;99.90;;;;;;4935139;29;20222;-76
2023/04/28 12:36:09;;;;;;;50.60;47.63;;;15.70;99.90;;;;;;4932461;29;20214;-76
2023/04/28 12:38:34;;;;;;;28.37;27.00;;;15.60;99.90;;;;;;4933288;29;20710;-75
2023/04/28 12:41:00;;;;;;;45.97;43.53;;;15.50;99.90;;;;;;4935803;29;20182;-75
2023/04/28 12:43:28;;;;;;;51.60;48.80;;;15.50;99.90;;;;;;4952660;28;20268;-75
2023/04/28 12:45:55;;;;;;;64.50;61.03;;;15.50;99.90;;;;;;4967592;28;20189;-75
2023/04/28 12:48:24;;;;;;;96.97;91.87;;;15.60;99.90;;;;;;4952327;29;20287;-75
2023/04/28 12:50:51;;;;;;;431.27;405.77;;;15.60;99.90;;;;;;4952255;28;20189;-76
2023/04/28 12:53:17;;;;;;;604.67;566.03;;;15.50;99.90;;;;;;4933696;29;20194;-77
2023/04/28 12:55:42;;;;;;;813.00;754.93;;;15.40;99.90;;;;;;4934618;29;20218;-76
2023/04/28 12:58:08;;;;;;;307.43;290.90;;;15.20;99.90;;;;;;4933412;29;20191;-75
2023/04/28 13:00:34;;;;;;;30.63;29.17;;;15.00;99.90;;;;;;4934999;29;20183;-74
2023/04/28 13:03:00;;;;;;;29.23;27.57;;;14.70;99.90;;;;;;4952049;28;20186;-75
2023/04/28 13:05:26;;;;;;;6.73;6.43;;;14.70;99.90;;;;;;4952477;28;20206;-75
2023/04/28 13:07:52;;;;;;;26.17;24.20;;;14.60;99.90;;;;;;4952360;28;20248;-75
2023/04/28 13:10:21;;;;;;;9.63;8.50;;;14.50;99.90;;;;;;4952648;28;20203;-75
2023/04/28 13:12:46;;;;;;;12.47;11.37;;;14.30;99.90;;;;;;4936254;29;20310;-74
2023/04/28 13:15:12;;;;;;;38.20;36.40;;;14.20;99.90;;;;;;4941130;29;20242;-75
2023/04/28 13:17:38;;;;;;;29.73;28.30;;;14.10;99.90;;;;;;4938215;29;20238;-76
2023/04/28 13:20:05;;;;;;;16.50;15.40;;;14.10;99.90;;;;;;4935552;29;20273;-75
2023/04/28 13:22:31;;;;;;;34.27;32.53;;;14.20;99.90;;;;;;4949755;28;20201;-75
2023/04/28 13:24:57;;;;;;;23.33;21.73;;;14.30;99.90;;;;;;4956859;28;20553;-75
2023/04/28 13:27:23;;;;;;;15.93;14.87;;;14.50;99.90;;;;;;4962690;28;20185;-76
2023/04/28 13:29:48;;;;;;;10.90;10.40;;;14.70;99.90;;;;;;4962488;28;20209;-76
2023/04/28 13:32:14;;;;;;;28.57;27.13;;;14.90;99.90;;;;;;4950627;28;20242;-77
2023/04/28 13:34:40;;;;;;;127.07;120.73;;;15.00;99.90;;;;;;4940460;28;20198;-76
2023/04/28 13:37:06;;;;;;;9.97;9.37;;;15.00;99.90;;;;;;4947320;29;20319;-76
2023/04/28 13:39:32;;;;;;;10.87;10.30;;;15.10;99.90;;;;;;4955549;28;20182;-76
2023/04/28 13:41:58;;;;;;;9.80;9.40;;;15.30;99.90;;;;;;4954809;29;20221;-76
2023/04/28 13:44:24;;;;;;;46.00;43.80;;;15.30;99.90;;;;;;4954372;28;20696;-76
2023/04/28 13:46:51;;;;;;;3.50;3.30;;;15.40;99.90;;;;;;4949222;28;20179;-76
2023/04/28 13:49:17;;;;;;;4.20;4.03;;;15.60;99.90;;;;;;4936395;29;20183;-76
2023/04/28 13:51:44;;;;;;;20.43;19.20;;;15.90;99.90;;;;;;4935130;29;20669;-77
2023/04/28 13:54:10;;;;;;;38.23;36.37;;;16.00;99.90;;;;;;4936271;29;20216;-74
2023/04/28 13:56:36;;;;;;;34.30;32.63;;;16.10;99.90;;;;;;4939529;29;20197;-76
2023/04/28 13:59:02;;;;;;;19.53;18.60;;;16.10;99.90;;;;;;4955976;29;20200;-75
2023/04/28 14:01:28;;;;;;;13.10;12.50;;;16.00;99.90;;;;;;4954653;29;20220;-77
2023/04/28 14:03:54;;;;;;;12.03;11.33;;;15.90;99.90;;;;;;4955624;29;20250;-77
2023/04/28 14:06:20;;;;;;;9.57;9.13;;;15.70;99.90;;;;;;4955299;28;20193;-78
2023/04/28 14:08:46;;;;;;;26.20;24.97;;;15.60;99.90;;;;;;4936943;29;20258;-78
2023/04/28 14:11:12;;;;;;;25.87;24.53;;;15.60;99.90;;;;;;4937727;29;20199;-77
2023/04/28 14:13:38;;;;;;;28.33;26.90;;;15.70;99.90;;;;;;4936282;28;20203;-77
2023/04/28 14:16:04;;;;;;;16.63;15.77;;;15.70;99.90;;;;;;4936595;28;20214;-77
2023/04/28 14:18:31;;;;;;;19.90;18.90;;;15.80;99.90;;;;;;4954454;29;20174;-78
2023/04/28 14:20:57;;;;;;;54.73;52.03;;;15.90;99.90;;;;;;4956073;28;20667;-77
2023/04/28 14:23:23;;;;;;;8.33;7.80;;;16.10;99.90;;;;;;4955061;28;20178;-77
2023/04/28 14:25:53;;;;;;;10.57;10.17;;;16.10;99.90;;;;;;4969976;28;20249;-77
2023/04/28 14:28:20;;;;;;;10.17;9.50;;;16.00;99.90;;;;;;4936678;29;20190;-77
2023/04/28 14:30:46;;;;;;;9.30;8.80;;;15.90;99.90;;;;;;4934746;29;20179;-77
2023/04/28 14:33:12;;;;;;;11.63;10.93;;;15.80;99.90;;;;;;4935797;29;20187;-77
2023/04/28 14:35:38;;;;;;;7.63;7.03;;;15.80;99.90;;;;;;4934410;29;20210;-77
2023/04/28 14:38:04;;;;;;;6.30;6.00;;;15.70;99.90;;;;;;4949566;29;20194;-77
2023/04/28 14:40:30;;;;;;;5.63;5.23;;;15.60;99.90;;;;;;4954829;28;20174;-77
2023/04/28 14:42:56;;;;;;;25.93;24.40;;;15.40;99.90;;;;;;4969783;28;20193;-77
2023/04/28 14:45:22;;;;;;;36.53;34.60;;;15.50;99.90;;;;;;4954733;28;20205;-76
2023/04/28 14:47:48;;;;;;;104.57;98.70;;;15.40;99.90;;;;;;4940794;29;20323;-77
2023/04/28 14:50:14;;;;;;;79.53;75.40;;;15.40;99.90;;;;;;4935583;29;20258;-77
2023/04/28 14:52:41;;;;;;;92.33;87.63;;;15.60;99.90;;;;;;4935673;29;20276;-77
2023/04/28 14:55:07;;;;;;;21.90;20.63;;;15.70;99.90;;;;;;4934226;29;20289;-76
2023/04/28 14:57:33;;;;;;;13.73;12.77;;;15.70;99.90;;;;;;4945088;29;20925;-76
2023/04/28 14:59:59;;;;;;;16.80;15.83;;;15.60;99.90;;;;;;4953608;29;20189;-76
2023/04/28 15:02:27;;;;;;;15.30;14.40;;;15.60;99.90;;;;;;4953930;29;20185;-77
2023/04/28 15:04:56;;;;;;;71.00;67.37;;;15.50;99.90;;;;;;4967393;29;20202;-77
2023/04/28 15:07:23;;;;;;;105.87;100.30;;;15.50;99.90;;;;;;4974850;28;20181;-76
2023/04/28 15:09:50;;;;;;;91.47;86.83;;;15.60;99.90;;;;;;4970327;29;20213;-76
2023/04/28 15:12:15;;;;;;;125.33;118.67;;;15.50;99.90;;;;;;4962484;29;20182;-76
2023/04/28 15:14:41;;;;;;;61.90;58.70;;;15.50;99.90;;;;;;4984667;23;20239;-77
2023/04/28 15:17:08;;;;;;;51.37;48.37;;;15.50;99.90;;;;;;4978931;28;20216;-75
2023/04/28 15:19:34;;;;;;;60.67;57.13;;;15.60;99.90;;;;;;4992699;28;20610;-75
2023/04/28 15:22:00;;;;;;;69.60;66.00;;;15.60;99.90;;;;;;4992892;28;20237;-75
2023/04/28 15:24:26;;;;;;;99.43;94.50;;;15.70;99.90;;;;;;4986949;28;20291;-76
2023/04/28 15:26:53;;;;;;;89.87;85.07;;;15.70;99.90;;;;;;4967554;28;20621;-77
2023/04/28 15:29:19;;;;;;;86.27;81.87;;;15.60;99.90;;;;;;4953862;28;20184;-75
2023/04/28 15:31:45;;;;;;;78.37;74.47;;;15.70;99.90;;;;;;4953406;29;20181;-76